AAL6282 KPHX-KSLC
Flight info
| Callsign | AAL6282 |
|---|---|
| Flight time | N/A |
| Altitude | 34000 |
| Route | QUAKY1 GCN BCE PITTT2 |
| Aircraft | B38M/M-SDE1FGHILORVWXY/HB1 |
Departure
| Time | 2026-05-07 15:57 |
|---|---|
| Airport | Phoenix Sky Harbor International Airport (KPHX) |
Arrival
| Time | N/A |
|---|---|
| Airport | Salt Lake City International Airport (KSLC) |
| Time | Latitude | Longitude | Altitude | Speed | Heading |
|---|---|---|---|---|---|
| 2026-05-07 15:23 | 33.43672 | -111.99369 | 1171 ft | 0 kts | 253° |
| 2026-05-07 15:46 | 33.43678 | -111.99347 | 1173 ft | 2 kts | 249° |
| 2026-05-07 15:46 | 33.43685 | -111.99329 | 1174 ft | 2 kts | 240° |
| 2026-05-07 15:46 | 33.43696 | -111.99314 | 1171 ft | 2 kts | 202° |
| 2026-05-07 15:47 | 33.43712 | -111.99311 | 1171 ft | 2 kts | 187° |
| 2026-05-07 15:47 | 33.43724 | -111.99301 | 1170 ft | 2 kts | 272° |
| 2026-05-07 15:47 | 33.43714 | -111.99287 | 1172 ft | 2 kts | 355° |
| 2026-05-07 15:47 | 33.43699 | -111.99293 | 1171 ft | 2 kts | 20° |
| 2026-05-07 15:48 | 33.43689 | -111.99295 | 1168 ft | 1 kts | 3° |
| 2026-05-07 15:48 | 33.43688 | -111.99295 | 1168 ft | 0 kts | 2° |
| 2026-05-07 15:49 | 33.43690 | -111.99295 | 1169 ft | 1 kts | 1° |
| 2026-05-07 15:50 | 33.43742 | -111.99296 | 1173 ft | 13 kts | 0° |
| 2026-05-07 15:50 | 33.43849 | -111.99295 | 1171 ft | 16 kts | 0° |
| 2026-05-07 15:50 | 33.43904 | -111.99368 | 1170 ft | 14 kts | 270° |
| 2026-05-07 15:50 | 33.43904 | -111.99498 | 1169 ft | 17 kts | 270° |
| 2026-05-07 15:51 | 33.43905 | -111.99647 | 1168 ft | 19 kts | 270° |
| 2026-05-07 15:51 | 33.43905 | -111.99835 | 1168 ft | 27 kts | 270° |
| 2026-05-07 15:51 | 33.43905 | -112.00068 | 1168 ft | 29 kts | 270° |
| 2026-05-07 15:51 | 33.43905 | -112.00289 | 1168 ft | 15 kts | 269° |
| 2026-05-07 15:52 | 33.43862 | -112.00382 | 1170 ft | 15 kts | 189° |
| 2026-05-07 15:52 | 33.43749 | -112.00382 | 1169 ft | 17 kts | 180° |
| 2026-05-07 15:52 | 33.43621 | -112.00381 | 1173 ft | 19 kts | 180° |
| 2026-05-07 15:52 | 33.43480 | -112.00383 | 1169 ft | 21 kts | 180° |
| 2026-05-07 15:53 | 33.43324 | -112.00383 | 1171 ft | 23 kts | 180° |
| 2026-05-07 15:53 | 33.43227 | -112.00390 | 1169 ft | 11 kts | 214° |
| 2026-05-07 15:53 | 33.43215 | -112.00484 | 1173 ft | 13 kts | 270° |
| 2026-05-07 15:53 | 33.43214 | -112.00641 | 1171 ft | 24 kts | 269° |
| 2026-05-07 15:54 | 33.43215 | -112.00861 | 1170 ft | 28 kts | 270° |
| 2026-05-07 15:54 | 33.43215 | -112.01102 | 1165 ft | 30 kts | 270° |
| 2026-05-07 15:54 | 33.43215 | -112.01359 | 1166 ft | 32 kts | 270° |
| 2026-05-07 15:54 | 33.43215 | -112.01629 | 1165 ft | 33 kts | 270° |
| 2026-05-07 15:55 | 33.43216 | -112.01912 | 1170 ft | 35 kts | 270° |
| 2026-05-07 15:55 | 33.43216 | -112.02155 | 1171 ft | 23 kts | 270° |
| 2026-05-07 15:55 | 33.43217 | -112.02286 | 1168 ft | 25 kts | 270° |
| 2026-05-07 15:55 | 33.43216 | -112.02550 | 1170 ft | 17 kts | 270° |
| 2026-05-07 15:56 | 33.43216 | -112.02646 | 1170 ft | 12 kts | 270° |
| 2026-05-07 15:56 | 33.43154 | -112.02699 | 1167 ft | 12 kts | 180° |
| 2026-05-07 15:56 | 33.43110 | -112.02685 | 1161 ft | 6 kts | 121° |
| 2026-05-07 15:56 | 33.43106 | -112.02541 | 1163 ft | 43 kts | 90° |
| 2026-05-07 15:57 | 33.43106 | -112.01924 | 1164 ft | 103 kts | 90° |
| 2026-05-07 15:57 | 33.43105 | -112.00856 | 1169 ft | 151 kts | 90° |
| 2026-05-07 15:57 | 33.43109 | -111.99449 | 1297 ft | 179 kts | 90° |
| 2026-05-07 15:57 | 33.43127 | -111.97972 | 1909 ft | 178 kts | 85° |
| 2026-05-07 15:58 | 33.43226 | -111.96465 | 2450 ft | 189 kts | 84° |
| 2026-05-07 15:58 | 33.43320 | -111.94813 | 3007 ft | 210 kts | 85° |
| 2026-05-07 15:58 | 33.43408 | -111.92989 | 3576 ft | 230 kts | 85° |
| 2026-05-07 15:58 | 33.43495 | -111.90996 | 4179 ft | 249 kts | 86° |
| 2026-05-07 15:59 | 33.43598 | -111.88874 | 4933 ft | 257 kts | 82° |
| 2026-05-07 15:59 | 33.44108 | -111.86831 | 5855 ft | 260 kts | 60° |
| 2026-05-07 15:59 | 33.45372 | -111.85261 | 6644 ft | 269 kts | 31° |
| 2026-05-07 15:59 | 33.47156 | -111.84565 | 7463 ft | 276 kts | 5° |
| 2026-05-07 16:00 | 33.49089 | -111.84521 | 8295 ft | 280 kts | 3° |
| 2026-05-07 16:00 | 33.51059 | -111.84425 | 8836 ft | 284 kts | 3° |
| 2026-05-07 16:00 | 33.53006 | -111.84324 | 8955 ft | 284 kts | 4° |
| 2026-05-07 16:00 | 33.54973 | -111.84219 | 9008 ft | 284 kts | 4° |
| 2026-05-07 16:01 | 33.56946 | -111.84111 | 9008 ft | 283 kts | 4° |
| 2026-05-07 16:01 | 33.58909 | -111.84004 | 9013 ft | 283 kts | 4° |
| 2026-05-07 16:01 | 33.60873 | -111.83896 | 9012 ft | 282 kts | 4° |
| 2026-05-07 16:01 | 33.62836 | -111.83788 | 9020 ft | 282 kts | 4° |
| 2026-05-07 16:02 | 33.64799 | -111.83689 | 9034 ft | 284 kts | 1° |
| 2026-05-07 16:02 | 33.66757 | -111.84011 | 9691 ft | 283 kts | 350° |
| 2026-05-07 16:02 | 33.68701 | -111.84453 | 10448 ft | 291 kts | 351° |
| 2026-05-07 16:02 | 33.70762 | -111.84916 | 10871 ft | 310 kts | 351° |
| 2026-05-07 16:03 | 33.72930 | -111.85403 | 11414 ft | 324 kts | 351° |
| 2026-05-07 16:03 | 33.75173 | -111.85906 | 12148 ft | 330 kts | 351° |
| 2026-05-07 16:03 | 33.77444 | -111.86417 | 12992 ft | 335 kts | 351° |
| 2026-05-07 16:03 | 33.79750 | -111.86935 | 13820 ft | 339 kts | 352° |
| 2026-05-07 16:04 | 33.82083 | -111.87460 | 14599 ft | 343 kts | 352° |
| 2026-05-07 16:04 | 33.84416 | -111.87985 | 15402 ft | 347 kts | 352° |
| 2026-05-07 16:04 | 33.86798 | -111.88521 | 16188 ft | 351 kts | 352° |
| 2026-05-07 16:04 | 33.89210 | -111.89065 | 16994 ft | 355 kts | 352° |
| 2026-05-07 16:05 | 33.91646 | -111.89615 | 17764 ft | 358 kts | 352° |
| 2026-05-07 16:05 | 33.94113 | -111.90171 | 18498 ft | 362 kts | 352° |
| 2026-05-07 16:05 | 33.96589 | -111.90730 | 19165 ft | 365 kts | 352° |
| 2026-05-07 16:05 | 33.99095 | -111.91296 | 19844 ft | 367 kts | 352° |
| 2026-05-07 16:06 | 34.01611 | -111.91864 | 20510 ft | 370 kts | 352° |
| 2026-05-07 16:06 | 34.04149 | -111.92438 | 21158 ft | 373 kts | 352° |
| 2026-05-07 16:06 | 34.06699 | -111.93014 | 21827 ft | 375 kts | 352° |
| 2026-05-07 16:06 | 34.09278 | -111.93547 | 22465 ft | 376 kts | 357° |
| 2026-05-07 16:07 | 34.11896 | -111.93798 | 23118 ft | 378 kts | 358° |
| 2026-05-07 16:07 | 34.14526 | -111.94069 | 23720 ft | 381 kts | 357° |
| 2026-05-07 16:07 | 34.17171 | -111.94357 | 24223 ft | 384 kts | 357° |
| 2026-05-07 16:07 | 34.19837 | -111.94656 | 24740 ft | 386 kts | 357° |
| 2026-05-07 16:08 | 34.22522 | -111.94961 | 25238 ft | 389 kts | 357° |